sensor_id;sensor_type;location;lat;lon;timestamp;pressure;altitude;pressure_sealevel;temperature;humidity
3206;BME280;1615;53.602;11.418;2023-04-23T00:01:43;100139.09;;;16.04;100.00
3206;BME280;1615;53.602;11.418;2023-04-23T00:04:10;100026.31;;;15.37;100.00
3206;BME280;1615;53.602;11.418;2023-04-23T00:06:36;100126.22;;;16.08;100.00
3206;BME280;1615;53.602;11.418;2023-04-23T00:09:02;100130.13;;;16.07;100.00
3206;BME280;1615;53.602;11.418;2023-04-23T00:11:28;100134.50;;;16.08;100.00
3206;BME280;1615;53.602;11.418;2023-04-23T00:13:53;100051.53;;;15.60;100.00
3206;BME280;1615;53.602;11.418;2023-04-23T00:16:19;100135.22;;;16.17;100.00
3206;BME280;1615;53.602;11.418;2023-04-23T00:18:45;100110.78;;;16.07;100.00
3206;BME280;1615;53.602;11.418;2023-04-23T00:21:11;100126.91;;;16.17;100.00
3206;BME280;1615;53.602;11.418;2023-04-23T00:23:37;100002.25;;;15.38;100.00
3206;BME280;1615;53.602;11.418;2023-04-23T00:26:03;100128.53;;;16.18;100.00
3206;BME280;1615;53.602;11.418;2023-04-23T00:28:28;100114.69;;;16.18;100.00
3206;BME280;1615;53.602;11.418;2023-04-23T00:30:54;100051.09;;;15.70;100.00
3206;BME280;1615;53.602;11.418;2023-04-23T00:33:19;100058.94;;;15.68;100.00
3206;BME280;1615;53.602;11.418;2023-04-23T00:35:45;100121.38;;;16.17;100.00
3206;BME280;1615;53.602;11.418;2023-04-23T00:38:10;100121.38;;;16.17;100.00
3206;BME280;1615;53.602;11.418;2023-04-23T00:40:35;99954.69;;;15.20;100.00
3206;BME280;1615;53.602;11.418;2023-04-23T00:43:01;100126.22;;;16.20;100.00
3206;BME280;1615;53.602;11.418;2023-04-23T00:45:27;100127.81;;;16.21;100.00
3206;BME280;1615;53.602;11.418;2023-04-23T00:47:52;100106.03;;;16.07;100.00
3206;BME280;1615;53.602;11.418;2023-04-23T00:50:18;100125.31;;;16.16;100.00
3206;BME280;1615;53.602;11.418;2023-04-23T00:52:43;100114.94;;;16.13;100.00
3206;BME280;1615;53.602;11.418;2023-04-23T00:55:08;100117.25;;;16.11;100.00
3206;BME280;1615;53.602;11.418;2023-04-23T00:57:35;100116.31;;;16.07;100.00
3206;BME280;1615;53.602;11.418;2023-04-23T01:00:01;100126.44;;;16.03;100.00
3206;BME280;1615;53.602;11.418;2023-04-23T01:02:28;100112.84;;;15.98;100.00
3206;BME280;1615;53.602;11.418;2023-04-23T01:04:54;100117.22;;;15.99;100.00
3206;BME280;1615;53.602;11.418;2023-04-23T01:07:20;100112.84;;;15.98;100.00
3206;BME280;1615;53.602;11.418;2023-04-23T01:09:47;100112.72;;;15.94;100.00
3206;BME280;1615;53.602;11.418;2023-04-23T01:12:14;100109.16;;;15.94;100.00
3206;BME280;1615;53.602;11.418;2023-04-23T01:14:40;100107.66;;;15.84;100.00
3206;BME280;1615;53.602;11.418;2023-04-23T01:17:05;100111.47;;;15.80;100.00
3206;BME280;1615;53.602;11.418;2023-04-23T01:19:32;100106.38;;;15.82;100.00
3206;BME280;1615;53.602;11.418;2023-04-23T01:21:59;100060.50;;;15.45;100.00
3206;BME280;1615;53.602;11.418;2023-04-23T01:24:28;100092.09;;;15.80;100.00
3206;BME280;1615;53.602;11.418;2023-04-23T01:26:55;100093.72;;;15.81;100.00
3206;BME280;1615;53.602;11.418;2023-04-23T01:29:22;100096.25;;;15.74;100.00
3206;BME280;1615;53.602;11.418;2023-04-23T01:31:48;100088.97;;;15.69;100.00
3206;BME280;1615;53.602;11.418;2023-04-23T01:34:14;100089.50;;;15.51;100.00
3206;BME280;1615;53.602;11.418;2023-04-23T01:36:40;100074.47;;;15.28;100.00
3206;BME280;1615;53.602;11.418;2023-04-23T01:39:06;100104.16;;;15.51;100.00
3206;BME280;1615;53.602;11.418;2023-04-23T01:41:32;100100.34;;;15.56;100.00
3206;BME280;1615;53.602;11.418;2023-04-23T01:43:59;100098.19;;;15.61;100.00
3206;BME280;1615;53.602;11.418;2023-04-23T01:46:24;100104.25;;;15.55;100.00
3206;BME280;1615;53.602;11.418;2023-04-23T01:48:50;100094.69;;;15.52;100.00
3206;BME280;1615;53.602;11.418;2023-04-23T01:51:15;100101.03;;;15.53;100.00
3206;BME280;1615;53.602;11.418;2023-04-23T01:53:41;100105.09;;;15.55;100.00
3206;BME280;1615;53.602;11.418;2023-04-23T01:56:06;100019.19;;;15.04;100.00
3206;BME280;1615;53.602;11.418;2023-04-23T01:58:34;100103.09;;;15.56;100.00
3206;BME280;1615;53.602;11.418;2023-04-23T02:00:59;100097.59;;;15.56;100.00
3206;BME280;1615;53.602;11.418;2023-04-23T02:03:24;100044.75;;;15.13;100.00
3206;BME280;1615;53.602;11.418;2023-04-23T02:05:52;100101.84;;;15.53;100.00
3206;BME280;1615;53.602;11.418;2023-04-23T02:08:19;100024.22;;;15.02;100.00
3206;BME280;1615;53.602;11.418;2023-04-23T02:10:44;100094.38;;;15.54;100.00
3206;BME280;1615;53.602;11.418;2023-04-23T02:13:09;100111.88;;;15.58;100.00
3206;BME280;1615;53.602;11.418;2023-04-23T02:15:35;100105.19;;;15.59;100.00
3206;BME280;1615;53.602;11.418;2023-04-23T02:18:02;100107.47;;;15.57;100.00
3206;BME280;1615;53.602;11.418;2023-04-23T02:20:28;100111.41;;;15.56;100.00
3206;BME280;1615;53.602;11.418;2023-04-23T02:22:53;100114.66;;;15.58;100.00
3206;BME280;1615;53.602;11.418;2023-04-23T02:25:18;100117.84;;;15.60;100.00
3206;BME280;1615;53.602;11.418;2023-04-23T02:27:46;100065.72;;;15.26;100.00
3206;BME280;1615;53.602;11.418;2023-04-23T02:30:11;100105.88;;;15.56;100.00
3206;BME280;1615;53.602;11.418;2023-04-23T02:32:38;100105.19;;;15.59;100.00
3206;BME280;1615;53.602;11.418;2023-04-23T02:35:04;100141.84;;;15.68;100.00
3206;BME280;1615;53.602;11.418;2023-04-23T02:37:33;100114.66;;;15.70;100.00
3206;BME280;1615;53.602;11.418;2023-04-23T02:39:59;100058.84;;;15.32;100.00
3206;BME280;1615;53.602;11.418;2023-04-23T02:42:24;100117.44;;;15.70;100.00
3206;BME280;1615;53.602;11.418;2023-04-23T02:44:50;100114.22;;;15.68;100.00
3206;BME280;1615;53.602;11.418;2023-04-23T02:47:15;100119.25;;;15.78;100.00
3206;BME280;1615;53.602;11.418;2023-04-23T02:49:41;100119.25;;;15.78;100.00
3206;BME280;1615;53.602;11.418;2023-04-23T02:52:06;100148.78;;;15.86;100.00
3206;BME280;1615;53.602;11.418;2023-04-23T02:54:32;100115.38;;;15.79;100.00
3206;BME280;1615;53.602;11.418;2023-04-23T02:56:57;100112.47;;;15.75;100.00
3206;BME280;1615;53.602;11.418;2023-04-23T02:59:23;100111.69;;;15.75;100.00
3206;BME280;1615;53.602;11.418;2023-04-23T03:01:48;100118.00;;;15.75;100.00
3206;BME280;1615;53.602;11.418;2023-04-23T03:04:13;100065.09;;;15.41;100.00
3206;BME280;1615;53.602;11.418;2023-04-23T03:06:39;100110.06;;;15.74;100.00
3206;BME280;1615;53.602;11.418;2023-04-23T03:09:06;100113.97;;;15.73;100.00
3206;BME280;1615;53.602;11.418;2023-04-23T03:11:31;100115.13;;;15.72;100.00
3206;BME280;1615;53.602;11.418;2023-04-23T03:13:56;100047.06;;;15.23;100.00
3206;BME280;1615;53.602;11.418;2023-04-23T03:16:22;100107.75;;;15.64;100.00
3206;BME280;1615;53.602;11.418;2023-04-23T03:18:47;100082.72;;;15.48;100.00
3206;BME280;1615;53.602;11.418;2023-04-23T03:21:12;100106.81;;;15.60;100.00
3206;BME280;1615;53.602;11.418;2023-04-23T03:23:38;100041.31;;;15.16;100.00
3206;BME280;1615;53.602;11.418;2023-04-23T03:26:03;100104.25;;;15.55;100.00
3206;BME280;1615;53.602;11.418;2023-04-23T03:28:29;100107.72;;;15.52;100.00
3206;BME280;1615;53.602;11.418;2023-04-23T03:30:55;100033.66;;;15.01;100.00
3206;BME280;1615;53.602;11.418;2023-04-23T03:33:20;100113.59;;;15.50;100.00
3206;BME280;1615;53.602;11.418;2023-04-23T03:35:46;100111.16;;;15.49;100.00
3206;BME280;1615;53.602;11.418;2023-04-23T03:38:11;100110.34;;;15.48;100.00
3206;BME280;1615;53.602;11.418;2023-04-23T03:40:36;100092.47;;;15.34;100.00
3206;BME280;1615;53.602;11.418;2023-04-23T03:43:01;100101.94;;;15.45;100.00
3206;BME280;1615;53.602;11.418;2023-04-23T03:45:27;100107.00;;;15.43;100.00
3206;BME280;1615;53.602;11.418;2023-04-23T03:47:52;100109.75;;;15.43;100.00
3206;BME280;1615;53.602;11.418;2023-04-23T03:50:18;100063.84;;;15.18;100.00
3206;BME280;1615;53.602;11.418;2023-04-23T03:52:43;100106.06;;;15.39;100.00
3206;BME280;1615;53.602;11.418;2023-04-23T03:55:09;100102.16;;;15.40;100.00
3206;BME280;1615;53.602;11.418;2023-04-23T03:57:35;100097.19;;;15.33;100.00
3206;BME280;1615;53.602;11.418;2023-04-23T04:00:01;100104.19;;;15.31;100.00
3206;BME280;1615;53.602;11.418;2023-04-23T04:02:27;100107.81;;;15.23;100.00
3206;BME280;1615;53.602;11.418;2023-04-23T04:04:52;100115.91;;;15.28;100.00
3206;BME280;1615;53.602;11.418;2023-04-23T04:07:19;100106.78;;;15.27;100.00
3206;BME280;1615;53.602;11.418;2023-04-23T04:09:44;100111.19;;;15.28;100.00
3206;BME280;1615;53.602;11.418;2023-04-23T04:12:11;100117.00;;;15.15;100.00
3206;BME280;1615;53.602;11.418;2023-04-23T04:14:36;100114.63;;;15.25;100.00
3206;BME280;1615;53.602;11.418;2023-04-23T04:17:02;100110.81;;;15.30;100.00
3206;BME280;1615;53.602;11.418;2023-04-23T04:19:27;100104.66;;;15.33;100.00
3206;BME280;1615;53.602;11.418;2023-04-23T04:21:52;100114.81;;;15.41;100.00
3206;BME280;1615;53.602;11.418;2023-04-23T04:24:18;100109.97;;;15.38;100.00
3206;BME280;1615;53.602;11.418;2023-04-23T04:26:45;99985.44;;;14.54;100.00
3206;BME280;1615;53.602;11.418;2023-04-23T04:29:11;100100.69;;;15.22;100.00
3206;BME280;1615;53.602;11.418;2023-04-23T04:31:37;100115.50;;;15.38;100.00
3206;BME280;1615;53.602;11.418;2023-04-23T04:34:02;100062.31;;;14.96;100.00
3206;BME280;1615;53.602;11.418;2023-04-23T04:36:28;100126.28;;;15.31;100.00
3206;BME280;1615;53.602;11.418;2023-04-23T04:38:54;100124.81;;;15.33;100.00
3206;BME280;1615;53.602;11.418;2023-04-23T04:41:20;100127.06;;;15.31;100.00
3206;BME280;1615;53.602;11.418;2023-04-23T04:43:46;100127.88;;;15.32;100.00
3206;BME280;1615;53.602;11.418;2023-04-23T04:46:12;100073.66;;;14.95;100.00
3206;BME280;1615;53.602;11.418;2023-04-23T04:48:37;100131.81;;;15.31;100.00
3206;BME280;1615;53.602;11.418;2023-04-23T04:51:03;100131.81;;;15.31;100.00
3206;BME280;1615;53.602;11.418;2023-04-23T04:53:28;100129.38;;;15.29;100.00
3206;BME280;1615;53.602;11.418;2023-04-23T04:55:54;100127.41;;;15.30;100.00
3206;BME280;1615;53.602;11.418;2023-04-23T04:58:19;100126.94;;;15.28;100.00
3206;BME280;1615;53.602;11.418;2023-04-23T05:00:44;100129.91;;;15.23;100.00
3206;BME280;1615;53.602;11.418;2023-04-23T05:03:11;100134.50;;;15.19;100.00
3206;BME280;1615;53.602;11.418;2023-04-23T05:05:36;100142.31;;;15.17;100.00
3206;BME280;1615;53.602;11.418;2023-04-23T05:08:01;100136.34;;;15.15;100.00
3206;BME280;1615;53.602;11.418;2023-04-23T05:10:28;100127.78;;;15.08;100.00
3206;BME280;1615;53.602;11.418;2023-04-23T05:12:55;100138.72;;;15.16;100.00
3206;BME280;1615;53.602;11.418;2023-04-23T05:15:21;100136.78;;;15.17;100.00
3206;BME280;1615;53.602;11.418;2023-04-23T05:17:46;100108.59;;;14.91;100.00
3206;BME280;1615;53.602;11.418;2023-04-23T05:20:12;100151.47;;;15.09;100.00
3206;BME280;1615;53.602;11.418;2023-04-23T05:22:39;100115.03;;;14.83;100.00
3206;BME280;1615;53.602;11.418;2023-04-23T05:25:06;100153.19;;;15.01;100.00
3206;BME280;1615;53.602;11.418;2023-04-23T05:27:32;100089.72;;;14.60;100.00
3206;BME280;1615;53.602;11.418;2023-04-23T05:29:57;100166.03;;;14.97;100.00
3206;BME280;1615;53.602;11.418;2023-04-23T05:32:23;100177.47;;;14.87;100.00
3206;BME280;1615;53.602;11.418;2023-04-23T05:34:48;100189.38;;;14.79;100.00
3206;BME280;1615;53.602;11.418;2023-04-23T05:37:14;100180.69;;;14.69;100.00
3206;BME280;1615;53.602;11.418;2023-04-23T05:39:39;100190.78;;;14.65;100.00
3206;BME280;1615;53.602;11.418;2023-04-23T05:42:04;100075.22;;;13.85;100.00
3206;BME280;1615;53.602;11.418;2023-04-23T05:44:30;100197.81;;;14.54;100.00
3206;BME280;1615;53.602;11.418;2023-04-23T05:46:55;100197.34;;;14.52;100.00
3206;BME280;1615;53.602;11.418;2023-04-23T05:49:21;100206.31;;;14.40;100.00
3206;BME280;1615;53.602;11.418;2023-04-23T05:51:46;100220.44;;;14.39;100.00
3206;BME280;1615;53.602;11.418;2023-04-23T05:54:12;100130.16;;;13.90;100.00
3206;BME280;1615;53.602;11.418;2023-04-23T05:56:37;100212.16;;;14.39;100.00
3206;BME280;1615;53.602;11.418;2023-04-23T05:59:02;100207.16;;;14.41;100.00
3206;BME280;1615;53.602;11.418;2023-04-23T06:01:28;100215.88;;;14.43;100.00
3206;BME280;1615;53.602;11.418;2023-04-23T06:03:53;100212.16;;;14.39;100.00
3206;BME280;1615;53.602;11.418;2023-04-23T06:06:18;100224.06;;;14.31;100.00
3206;BME280;1615;53.602;11.418;2023-04-23T06:08:44;100229.94;;;14.21;100.00
3206;BME280;1615;53.602;11.418;2023-04-23T06:11:09;100221.81;;;14.16;100.00
3206;BME280;1615;53.602;11.418;2023-04-23T06:13:34;100042.59;;;12.95;100.00
3206;BME280;1615;53.602;11.418;2023-04-23T06:16:05;100233.34;;;14.09;100.00
3206;BME280;1615;53.602;11.418;2023-04-23T06:18:31;100209.88;;;13.95;100.00
3206;BME280;1615;53.602;11.418;2023-04-23T06:20:57;100236.44;;;13.99;100.00
3206;BME280;1615;53.602;11.418;2023-04-23T06:23:23;100198.09;;;13.77;100.00
3206;BME280;1615;53.602;11.418;2023-04-23T06:25:48;100262.72;;;13.97;100.00
3206;BME280;1615;53.602;11.418;2023-04-23T06:28:13;100245.84;;;13.98;100.00
3206;BME280;1615;53.602;11.418;2023-04-23T06:30:39;100246.50;;;14.04;100.00
3206;BME280;1615;53.602;11.418;2023-04-23T06:33:04;100268.56;;;14.04;100.00
3206;BME280;1615;53.602;11.418;2023-04-23T06:35:29;100252.81;;;14.04;100.00
3206;BME280;1615;53.602;11.418;2023-04-23T06:37:55;100251.03;;;14.00;100.00
3206;BME280;1615;53.602;11.418;2023-04-23T06:40:20;100260.47;;;13.99;100.00
3206;BME280;1615;53.602;11.418;2023-04-23T06:42:45;100264.81;;;14.00;100.00
3206;BME280;1615;53.602;11.418;2023-04-23T06:45:11;100261.25;;;13.99;100.00
3206;BME280;1615;53.602;11.418;2023-04-23T06:47:37;100256.44;;;13.79;100.00
3206;BME280;1615;53.602;11.418;2023-04-23T06:50:02;100268.59;;;13.87;100.00
3206;BME280;1615;53.602;11.418;2023-04-23T06:52:29;100267.13;;;13.81;100.00
3206;BME280;1615;53.602;11.418;2023-04-23T06:54:55;100265.16;;;13.90;100.00
3206;BME280;1615;53.602;11.418;2023-04-23T06:57:20;100266.63;;;13.96;100.00
3206;BME280;1615;53.602;11.418;2023-04-23T06:59:46;100274.56;;;13.97;100.00
3206;BME280;1615;53.602;11.418;2023-04-23T07:02:11;100269.38;;;13.96;100.00
3206;BME280;1615;53.602;11.418;2023-04-23T07:04:36;100212.22;;;13.59;100.00
3206;BME280;1615;53.602;11.418;2023-04-23T07:07:02;100267.41;;;14.05;100.00
3206;BME280;1615;53.602;11.418;2023-04-23T07:09:27;100202.06;;;13.51;100.00
3206;BME280;1615;53.602;11.418;2023-04-23T07:11:53;100271.81;;;13.97;100.00
3206;BME280;1615;53.602;11.418;2023-04-23T07:14:18;100238.81;;;13.72;100.00
3206;BME280;1615;53.602;11.418;2023-04-23T07:16:43;100277.63;;;13.96;100.00
3206;BME280;1615;53.602;11.418;2023-04-23T07:19:09;100270.03;;;13.93;100.00
3206;BME280;1615;53.602;11.418;2023-04-23T07:21:34;100271.34;;;13.95;100.00
3206;BME280;1615;53.602;11.418;2023-04-23T07:24:00;100278.59;;;14.00;100.00
3206;BME280;1615;53.602;11.418;2023-04-23T07:26:31;100277.97;;;14.03;100.00
3206;BME280;1615;53.602;11.418;2023-04-23T07:28:56;100274.50;;;14.14;100.00
3206;BME280;1615;53.602;11.418;2023-04-23T07:31:21;100241.34;;;13.94;100.00
3206;BME280;1615;53.602;11.418;2023-04-23T07:33:48;100267.84;;;14.15;100.00
3206;BME280;1615;53.602;11.418;2023-04-23T07:36:13;100276.94;;;14.16;100.00
3206;BME280;1615;53.602;11.418;2023-04-23T07:38:38;100233.41;;;13.84;100.00
3206;BME280;1615;53.602;11.418;2023-04-23T07:41:04;100206.34;;;13.77;100.00
3206;BME280;1615;53.602;11.418;2023-04-23T07:43:29;100296.44;;;14.19;100.00
3206;BME280;1615;53.602;11.418;2023-04-23T07:45:54;100295.59;;;14.19;100.00
3206;BME280;1615;53.602;11.418;2023-04-23T07:48:20;100285.59;;;13.97;100.00
3206;BME280;1615;53.602;11.418;2023-04-23T07:50:45;100304.22;;;14.09;100.00
3206;BME280;1615;53.602;11.418;2023-04-23T07:53:10;100314.88;;;14.10;100.00
3206;BME280;1615;53.602;11.418;2023-04-23T07:55:36;100271.19;;;13.75;100.00
3206;BME280;1615;53.602;11.418;2023-04-23T07:58:01;100323.84;;;14.07;100.00
3206;BME280;1615;53.602;11.418;2023-04-23T08:00:26;100313.94;;;14.15;100.00
3206;BME280;1615;53.602;11.418;2023-04-23T08:02:52;100312.47;;;14.17;100.00
3206;BME280;1615;53.602;11.418;2023-04-23T08:05:17;100306.50;;;14.24;100.00
3206;BME280;1615;53.602;11.418;2023-04-23T08:07:43;100308.88;;;14.17;100.00
3206;BME280;1615;53.602;11.418;2023-04-23T08:10:08;100314.56;;;14.12;100.00
3206;BME280;1615;53.602;11.418;2023-04-23T08:12:33;100263.38;;;13.94;100.00
3206;BME280;1615;53.602;11.418;2023-04-23T08:15:00;100296.56;;;14.23;100.00
3206;BME280;1615;53.602;11.418;2023-04-23T08:17:25;100296.19;;;14.41;100.00
3206;BME280;1615;53.602;11.418;2023-04-23T08:19:51;100299.13;;;14.36;100.00
3206;BME280;1615;53.602;11.418;2023-04-23T08:22:16;100304.44;;;14.50;100.00
3206;BME280;1615;53.602;11.418;2023-04-23T08:24:42;100306.03;;;14.59;100.00
3206;BME280;1615;53.602;11.418;2023-04-23T08:27:08;100300.75;;;14.75;100.00
3206;BME280;1615;53.602;11.418;2023-04-23T08:29:33;100297.63;;;14.85;100.00
3206;BME280;1615;53.602;11.418;2023-04-23T08:31:59;100292.88;;;14.94;100.00
3206;BME280;1615;53.602;11.418;2023-04-23T08:34:24;100295.25;;;15.04;100.00
3206;BME280;1615;53.602;11.418;2023-04-23T08:36:50;100297.47;;;15.10;100.00
3206;BME280;1615;53.602;11.418;2023-04-23T08:39:15;100294.66;;;15.19;100.00
3206;BME280;1615;53.602;11.418;2023-04-23T08:41:41;100290.22;;;15.26;100.00
3206;BME280;1615;53.602;11.418;2023-04-23T08:44:16;100302.63;;;15.41;100.00
3206;BME280;1615;53.602;11.418;2023-04-23T08:46:43;100289.59;;;15.50;100.00
3206;BME280;1615;53.602;11.418;2023-04-23T08:49:13;100291.00;;;15.56;100.00
3206;BME280;1615;53.602;11.418;2023-04-23T08:51:42;100283.31;;;15.61;100.00
3206;BME280;1615;53.602;11.418;2023-04-23T08:54:14;100289.91;;;15.69;100.00
3206;BME280;1615;53.602;11.418;2023-04-23T08:56:40;100298.47;;;15.76;100.00
3206;BME280;1615;53.602;11.418;2023-04-23T08:59:06;100200.03;;;15.10;100.00
3206;BME280;1615;53.602;11.418;2023-04-23T09:01:32;100292.81;;;15.72;100.00
3206;BME280;1615;53.602;11.418;2023-04-23T09:03:59;100301.44;;;15.71;100.00
3206;BME280;1615;53.602;11.418;2023-04-23T09:06:24;100299.97;;;15.53;100.00
3206;BME280;1615;53.602;11.418;2023-04-23T09:08:50;100298.56;;;15.47;100.00
3206;BME280;1615;53.602;11.418;2023-04-23T09:11:17;100302.94;;;15.48;100.00
3206;BME280;1615;53.602;11.418;2023-04-23T09:13:43;100300.09;;;15.56;100.00
3206;BME280;1615;53.602;11.418;2023-04-23T09:16:09;100299.81;;;15.70;100.00
3206;BME280;1615;53.602;11.418;2023-04-23T09:18:34;100304.59;;;15.81;100.00
3206;BME280;1615;53.602;11.418;2023-04-23T09:21:00;100299.50;;;16.04;100.00
3206;BME280;1615;53.602;11.418;2023-04-23T09:23:28;100302.59;;;16.02;100.00
3206;BME280;1615;53.602;11.418;2023-04-23T09:25:55;100289.59;;;16.15;100.00
3206;BME280;1615;53.602;11.418;2023-04-23T09:28:33;100290.34;;;16.36;100.00
3206;BME280;1615;53.602;11.418;2023-04-23T09:30:58;100277.16;;;16.53;100.00
3206;BME280;1615;53.602;11.418;2023-04-23T09:33:23;100257.22;;;16.60;100.00
3206;BME280;1615;53.602;11.418;2023-04-23T09:35:49;100291.56;;;16.95;100.00
3206;BME280;1615;53.602;11.418;2023-04-23T09:38:14;100284.88;;;16.84;100.00
3206;BME280;1615;53.602;11.418;2023-04-23T09:40:39;100300.25;;;16.93;100.00
3206;BME280;1615;53.602;11.418;2023-04-23T09:43:05;100287.91;;;17.03;100.00
3206;BME280;1615;53.602;11.418;2023-04-23T09:45:34;100293.28;;;17.23;100.00
3206;BME280;1615;53.602;11.418;2023-04-23T09:48:00;100280.66;;;17.38;100.00
3206;BME280;1615;53.602;11.418;2023-04-23T09:50:39;100285.06;;;17.51;100.00
3206;BME280;1615;53.602;11.418;2023-04-23T09:53:06;100284.81;;;17.56;100.00
3206;BME280;1615;53.602;11.418;2023-04-23T09:55:38;100278.56;;;17.59;100.00
3206;BME280;1615;53.602;11.418;2023-04-23T09:58:04;100292.47;;;17.47;100.00
3206;BME280;1615;53.602;11.418;2023-04-23T10:00:35;100273.97;;;17.51;100.00
3206;BME280;1615;53.602;11.418;2023-04-23T10:03:00;100270.09;;;17.40;100.00
3206;BME280;1615;53.602;11.418;2023-04-23T10:05:26;100273.50;;;17.49;100.00
3206;BME280;1615;53.602;11.418;2023-04-23T10:07:52;100214.91;;;17.23;100.00
3206;BME280;1615;53.602;11.418;2023-04-23T10:10:18;100263.50;;;17.72;100.00
3206;BME280;1615;53.602;11.418;2023-04-23T10:12:45;100269.84;;;17.72;100.00
3206;BME280;1615;53.602;11.418;2023-04-23T10:15:12;100269.06;;;17.72;100.00
3206;BME280;1615;53.602;11.418;2023-04-23T10:17:38;100269.44;;;17.86;100.00
3206;BME280;1615;53.602;11.418;2023-04-23T10:20:05;100270.25;;;18.14;100.00
3206;BME280;1615;53.602;11.418;2023-04-23T10:22:32;100272.13;;;18.25;100.00
3206;BME280;1615;53.602;11.418;2023-04-23T10:25:00;100284.00;;;18.38;100.00
3206;BME280;1615;53.602;11.418;2023-04-23T10:27:29;100282.38;;;18.37;100.00
3206;BME280;1615;53.602;11.418;2023-04-23T10:29:56;100283.72;;;18.43;100.00
3206;BME280;1615;53.602;11.418;2023-04-23T10:32:22;100267.25;;;18.34;100.00
3206;BME280;1615;53.602;11.418;2023-04-23T10:34:49;100257.97;;;18.30;100.00
3206;BME280;1615;53.602;11.418;2023-04-23T10:37:15;100230.19;;;17.99;100.00
3206;BME280;1615;53.602;11.418;2023-04-23T10:39:43;100267.13;;;18.31;100.00
3206;BME280;1615;53.602;11.418;2023-04-23T10:42:10;100186.72;;;17.60;100.00
3206;BME280;1615;53.602;11.418;2023-04-23T10:44:38;100264.03;;;18.05;100.00
3206;BME280;1615;53.602;11.418;2023-04-23T10:47:05;100259.31;;;18.05;100.00
3206;BME280;1615;53.602;11.418;2023-04-23T10:49:33;100264.22;;;18.12;100.00
3206;BME280;1615;53.602;11.418;2023-04-23T10:52:07;100263.88;;;18.29;100.00
3206;BME280;1615;53.602;11.418;2023-04-23T10:54:33;100257.47;;;18.40;100.00
3206;BME280;1615;53.602;11.418;2023-04-23T10:57:03;100258.88;;;18.19;100.00
3206;BME280;1615;53.602;11.418;2023-04-23T10:59:33;100245.63;;;17.69;100.00
3206;BME280;1615;53.602;11.418;2023-04-23T11:02:09;100256.28;;;17.83;100.00
3206;BME280;1615;53.602;11.418;2023-04-23T11:04:40;100252.16;;;17.77;100.00
3206;BME280;1615;53.602;11.418;2023-04-23T11:07:07;100250.69;;;17.67;100.00
3206;BME280;1615;53.602;11.418;2023-04-23T11:14:50;100261.47;;;17.57;100.00
3206;BME280;1615;53.602;11.418;2023-04-23T11:17:17;100263.00;;;17.54;100.00
3206;BME280;1615;53.602;11.418;2023-04-23T11:22:45;99965.53;;;15.73;100.00
3206;BME280;1615;53.602;11.418;2023-04-23T11:25:13;100263.13;;;17.46;100.00
3206;BME280;1615;53.602;11.418;2023-04-23T11:27:41;100170.09;;;16.81;100.00
3206;BME280;1615;53.602;11.418;2023-04-23T11:30:11;100259.88;;;17.56;100.00
3206;BME280;1615;53.602;11.418;2023-04-23T11:32:38;100258.66;;;17.69;100.00
3206;BME280;1615;53.602;11.418;2023-04-23T11:35:05;100266.78;;;17.62;100.00
3206;BME280;1615;53.602;11.418;2023-04-23T11:37:31;100256.34;;;17.71;100.00
3206;BME280;1615;53.602;11.418;2023-04-23T11:40:04;100257.91;;;17.84;100.00
3206;BME280;1615;53.602;11.418;2023-04-23T11:42:42;100259.81;;;17.95;100.00
3206;BME280;1615;53.602;11.418;2023-04-23T11:45:24;100253.72;;;17.90;100.00
3206;BME280;1615;53.602;11.418;2023-04-23T11:47:52;100251.84;;;17.94;100.00
3206;BME280;1615;53.602;11.418;2023-04-23T11:50:24;100230.88;;;17.81;100.00
3206;BME280;1615;53.602;11.418;2023-04-23T11:52:50;100211.78;;;17.64;100.00
3206;BME280;1615;53.602;11.418;2023-04-23T11:55:17;100255.97;;;18.00;100.00
3206;BME280;1615;53.602;11.418;2023-04-23T11:57:47;100247.31;;;17.74;100.00
3206;BME280;1615;53.602;11.418;2023-04-23T12:00:17;100204.38;;;17.68;100.00
3206;BME280;1615;53.602;11.418;2023-04-23T12:02:54;100192.38;;;17.64;100.00
3206;BME280;1615;53.602;11.418;2023-04-23T12:05:21;100250.44;;;18.15;100.00
3206;BME280;1615;53.602;11.418;2023-04-23T12:07:49;100251.00;;;18.21;100.00
3206;BME280;1615;53.602;11.418;2023-04-23T12:10:17;100262.34;;;18.16;100.00
3206;BME280;1615;53.602;11.418;2023-04-23T12:12:42;100269.97;;;18.19;100.00
3206;BME280;1615;53.602;11.418;2023-04-23T12:15:08;100270.16;;;18.26;100.00
3206;BME280;1615;53.602;11.418;2023-04-23T12:17:33;100265.78;;;18.25;100.00
3206;BME280;1615;53.602;11.418;2023-04-23T12:20:03;100264.53;;;18.22;100.00
3206;BME280;1615;53.602;11.418;2023-04-23T12:22:30;100266.94;;;18.24;100.00
3206;BME280;1615;53.602;11.418;2023-04-23T12:24:55;100256.72;;;18.28;100.00
3206;BME280;1615;53.602;11.418;2023-04-23T12:27:21;100247.47;;;18.36;100.00
3206;BME280;1615;53.602;11.418;2023-04-23T12:29:47;100210.63;;;18.08;99.67
3206;BME280;1615;53.602;11.418;2023-04-23T12:32:14;100250.84;;;18.45;100.00
3206;BME280;1615;53.602;11.418;2023-04-23T12:34:54;100251.06;;;18.52;99.00
3206;BME280;1615;53.602;11.418;2023-04-23T12:37:24;100112.63;;;17.73;100.00
3206;BME280;1615;53.602;11.418;2023-04-23T12:39:54;100230.41;;;18.68;100.00
3206;BME280;1615;53.602;11.418;2023-04-23T12:42:21;100231.50;;;18.64;96.03
3206;BME280;1615;53.602;11.418;2023-04-23T12:44:46;100197.31;;;18.44;98.02
3206;BME280;1615;53.602;11.418;2023-04-23T12:47:12;100097.22;;;17.91;100.00
3206;BME280;1615;53.602;11.418;2023-04-23T12:49:43;100235.06;;;18.80;99.98
3206;BME280;1615;53.602;11.418;2023-04-23T12:52:08;100227.78;;;18.91;99.97
3206;BME280;1615;53.602;11.418;2023-04-23T12:54:39;100242.03;;;19.05;100.00